sensor_id;sensor_type;location;lat;lon;timestamp;temperature;humidity
421;DHT22;63667;49.046;8.468;2023-01-06T00:01:09;12.00;99.60
421;DHT22;63667;49.046;8.468;2023-01-06T00:03:36;11.90;99.60
421;DHT22;63667;49.046;8.468;2023-01-06T00:06:04;11.90;99.60
421;DHT22;63667;49.046;8.468;2023-01-06T00:08:33;11.90;99.60
421;DHT22;63667;49.046;8.468;2023-01-06T00:11:11;11.90;99.60
421;DHT22;63667;49.046;8.468;2023-01-06T00:13:38;12.00;99.60
421;DHT22;63667;49.046;8.468;2023-01-06T00:16:10;12.00;99.60
421;DHT22;63667;49.046;8.468;2023-01-06T00:18:37;12.10;99.60
421;DHT22;63667;49.046;8.468;2023-01-06T00:21:05;12.10;99.60
421;DHT22;63667;49.046;8.468;2023-01-06T00:23:33;12.10;99.60
421;DHT22;63667;49.046;8.468;2023-01-06T00:26:00;12.10;99.60
421;DHT22;63667;49.046;8.468;2023-01-06T00:28:28;12.10;99.60
421;DHT22;63667;49.046;8.468;2023-01-06T00:30:55;12.00;99.60
421;DHT22;63667;49.046;8.468;2023-01-06T00:33:23;12.00;99.60
421;DHT22;63667;49.046;8.468;2023-01-06T00:35:50;12.10;99.60
421;DHT22;63667;49.046;8.468;2023-01-06T00:38:18;12.10;99.60
421;DHT22;63667;49.046;8.468;2023-01-06T00:40:46;12.10;99.60
421;DHT22;63667;49.046;8.468;2023-01-06T00:43:14;12.10;99.60
421;DHT22;63667;49.046;8.468;2023-01-06T00:45:42;12.10;99.60
421;DHT22;63667;49.046;8.468;2023-01-06T00:48:09;12.10;99.60
421;DHT22;63667;49.046;8.468;2023-01-06T00:50:37;12.10;99.60
421;DHT22;63667;49.046;8.468;2023-01-06T00:53:03;12.10;99.60
421;DHT22;63667;49.046;8.468;2023-01-06T00:55:31;12.10;99.60
421;DHT22;63667;49.046;8.468;2023-01-06T00:57:58;12.10;99.60
421;DHT22;63667;49.046;8.468;2023-01-06T01:00:25;12.10;99.60
421;DHT22;63667;49.046;8.468;2023-01-06T01:02:53;12.10;99.60
421;DHT22;63667;49.046;8.468;2023-01-06T01:05:20;12.10;99.60
421;DHT22;63667;49.046;8.468;2023-01-06T01:07:48;12.00;99.60
421;DHT22;63667;49.046;8.468;2023-01-06T01:10:15;12.20;99.60
421;DHT22;63667;49.046;8.468;2023-01-06T01:12:43;12.20;99.60
421;DHT22;63667;49.046;8.468;2023-01-06T01:15:11;12.20;99.60
421;DHT22;63667;49.046;8.468;2023-01-06T01:17:39;12.20;99.60
421;DHT22;63667;49.046;8.468;2023-01-06T01:20:08;12.20;99.60
421;DHT22;63667;49.046;8.468;2023-01-06T01:22:37;12.30;99.60
421;DHT22;63667;49.046;8.468;2023-01-06T01:25:06;12.20;99.60
421;DHT22;63667;49.046;8.468;2023-01-06T01:27:34;12.10;99.60
421;DHT22;63667;49.046;8.468;2023-01-06T01:30:02;12.20;99.60
421;DHT22;63667;49.046;8.468;2023-01-06T01:32:31;12.20;99.60
421;DHT22;63667;49.046;8.468;2023-01-06T01:34:58;12.20;99.60
421;DHT22;63667;49.046;8.468;2023-01-06T01:37:25;12.20;99.60
421;DHT22;63667;49.046;8.468;2023-01-06T01:39:52;12.20;99.60
421;DHT22;63667;49.046;8.468;2023-01-06T01:42:21;12.30;99.60
421;DHT22;63667;49.046;8.468;2023-01-06T01:45:05;12.30;99.60
421;DHT22;63667;49.046;8.468;2023-01-06T01:52:52;12.40;99.60
421;DHT22;63667;49.046;8.468;2023-01-06T01:55:21;12.40;99.60
421;DHT22;63667;49.046;8.468;2023-01-06T01:58:05;12.40;99.60
421;DHT22;63667;49.046;8.468;2023-01-06T02:00:35;12.40;99.60
421;DHT22;63667;49.046;8.468;2023-01-06T02:03:04;12.40;99.60
421;DHT22;63667;49.046;8.468;2023-01-06T02:05:32;12.40;99.60
421;DHT22;63667;49.046;8.468;2023-01-06T02:08:04;12.40;99.60
421;DHT22;63667;49.046;8.468;2023-01-06T02:10:33;12.40;99.60
421;DHT22;63667;49.046;8.468;2023-01-06T02:13:00;12.40;99.60
421;DHT22;63667;49.046;8.468;2023-01-06T02:15:31;12.40;99.60
421;DHT22;63667;49.046;8.468;2023-01-06T02:18:23;12.40;99.60
421;DHT22;63667;49.046;8.468;2023-01-06T02:24:25;12.50;99.60
421;DHT22;63667;49.046;8.468;2023-01-06T02:32:32;12.50;99.60
421;DHT22;63667;49.046;8.468;2023-01-06T02:38:09;12.50;99.60
421;DHT22;63667;49.046;8.468;2023-01-06T02:43:28;12.40;99.60
421;DHT22;63667;49.046;8.468;2023-01-06T02:48:43;12.30;99.60
421;DHT22;63667;49.046;8.468;2023-01-06T02:51:23;12.30;99.60
421;DHT22;63667;49.046;8.468;2023-01-06T02:57:26;12.20;99.60
421;DHT22;63667;49.046;8.468;2023-01-06T03:02:41;12.20;99.60
421;DHT22;63667;49.046;8.468;2023-01-06T03:05:12;12.10;99.60
421;DHT22;63667;49.046;8.468;2023-01-06T03:07:43;12.10;99.60
421;DHT22;63667;49.046;8.468;2023-01-06T03:10:14;12.00;99.60
421;DHT22;63667;49.046;8.468;2023-01-06T03:15:37;11.80;99.60
421;DHT22;63667;49.046;8.468;2023-01-06T03:18:05;11.90;99.60
421;DHT22;63667;49.046;8.468;2023-01-06T03:20:33;11.90;99.60
421;DHT22;63667;49.046;8.468;2023-01-06T03:23:00;11.80;99.60
421;DHT22;63667;49.046;8.468;2023-01-06T03:25:27;11.90;99.60
421;DHT22;63667;49.046;8.468;2023-01-06T03:27:56;11.90;99.60
421;DHT22;63667;49.046;8.468;2023-01-06T03:30:26;11.90;99.60
421;DHT22;63667;49.046;8.468;2023-01-06T03:33:03;11.90;99.60
421;DHT22;63667;49.046;8.468;2023-01-06T03:43:56;11.80;99.60
421;DHT22;63667;49.046;8.468;2023-01-06T03:46:39;11.80;99.60
421;DHT22;63667;49.046;8.468;2023-01-06T03:49:22;11.80;99.60
421;DHT22;63667;49.046;8.468;2023-01-06T03:51:58;11.70;99.60
421;DHT22;63667;49.046;8.468;2023-01-06T03:57:24;11.70;99.60
421;DHT22;63667;49.046;8.468;2023-01-06T03:59:55;11.60;99.60
421;DHT22;63667;49.046;8.468;2023-01-06T04:02:25;11.60;99.60
421;DHT22;63667;49.046;8.468;2023-01-06T04:05:07;11.60;99.60
421;DHT22;63667;49.046;8.468;2023-01-06T04:07:40;11.60;99.60
421;DHT22;63667;49.046;8.468;2023-01-06T04:10:07;11.50;99.60
421;DHT22;63667;49.046;8.468;2023-01-06T04:12:34;11.60;99.60
421;DHT22;63667;49.046;8.468;2023-01-06T04:15:25;11.50;99.60
421;DHT22;63667;49.046;8.468;2023-01-06T04:17:54;11.50;99.60
421;DHT22;63667;49.046;8.468;2023-01-06T04:20:25;11.50;99.60
421;DHT22;63667;49.046;8.468;2023-01-06T04:22:53;11.60;99.60
421;DHT22;63667;49.046;8.468;2023-01-06T04:25:22;11.50;99.60
421;DHT22;63667;49.046;8.468;2023-01-06T04:27:49;11.60;99.60
421;DHT22;63667;49.046;8.468;2023-01-06T04:30:17;11.50;99.60
421;DHT22;63667;49.046;8.468;2023-01-06T04:32:44;11.50;99.60
421;DHT22;63667;49.046;8.468;2023-01-06T04:35:12;11.50;99.60
421;DHT22;63667;49.046;8.468;2023-01-06T04:37:39;11.50;99.60
421;DHT22;63667;49.046;8.468;2023-01-06T04:40:08;11.50;99.60
421;DHT22;63667;49.046;8.468;2023-01-06T04:42:36;11.50;99.60
421;DHT22;63667;49.046;8.468;2023-01-06T04:45:21;11.50;99.60
421;DHT22;63667;49.046;8.468;2023-01-06T04:47:49;11.50;99.60
421;DHT22;63667;49.046;8.468;2023-01-06T04:50:16;11.50;99.60
421;DHT22;63667;49.046;8.468;2023-01-06T04:52:44;11.50;99.60
421;DHT22;63667;49.046;8.468;2023-01-06T04:55:12;11.50;99.60
421;DHT22;63667;49.046;8.468;2023-01-06T04:57:39;11.50;99.60
421;DHT22;63667;49.046;8.468;2023-01-06T05:00:07;11.50;99.60
421;DHT22;63667;49.046;8.468;2023-01-06T05:02:36;11.50;99.60
421;DHT22;63667;49.046;8.468;2023-01-06T05:05:04;11.40;99.60
421;DHT22;63667;49.046;8.468;2023-01-06T05:07:33;11.40;99.60
421;DHT22;63667;49.046;8.468;2023-01-06T05:10:03;11.40;99.60
421;DHT22;63667;49.046;8.468;2023-01-06T05:12:31;11.30;99.60
421;DHT22;63667;49.046;8.468;2023-01-06T05:14:59;11.30;99.60
421;DHT22;63667;49.046;8.468;2023-01-06T05:17:26;11.40;99.60
421;DHT22;63667;49.046;8.468;2023-01-06T05:19:53;11.40;99.60
421;DHT22;63667;49.046;8.468;2023-01-06T05:22:21;11.40;99.60
421;DHT22;63667;49.046;8.468;2023-01-06T05:24:48;11.40;99.60
421;DHT22;63667;49.046;8.468;2023-01-06T05:27:16;11.40;99.60
421;DHT22;63667;49.046;8.468;2023-01-06T05:29:44;11.40;99.60
421;DHT22;63667;49.046;8.468;2023-01-06T05:32:10;11.40;99.60
421;DHT22;63667;49.046;8.468;2023-01-06T05:34:37;11.40;99.60
421;DHT22;63667;49.046;8.468;2023-01-06T05:37:05;11.40;99.60
421;DHT22;63667;49.046;8.468;2023-01-06T05:39:33;11.40;99.60
421;DHT22;63667;49.046;8.468;2023-01-06T05:42:02;11.40;99.60
421;DHT22;63667;49.046;8.468;2023-01-06T05:44:29;11.40;99.60
421;DHT22;63667;49.046;8.468;2023-01-06T05:46:57;11.40;99.60
421;DHT22;63667;49.046;8.468;2023-01-06T05:49:25;11.30;99.60
421;DHT22;63667;49.046;8.468;2023-01-06T05:51:52;11.30;99.60
421;DHT22;63667;49.046;8.468;2023-01-06T05:54:20;11.30;99.60
421;DHT22;63667;49.046;8.468;2023-01-06T05:56:47;11.30;99.60
421;DHT22;63667;49.046;8.468;2023-01-06T05:59:14;11.30;99.60
421;DHT22;63667;49.046;8.468;2023-01-06T06:01:42;11.30;99.60
421;DHT22;63667;49.046;8.468;2023-01-06T06:04:13;11.30;99.60
421;DHT22;63667;49.046;8.468;2023-01-06T06:06:41;11.30;99.60
421;DHT22;63667;49.046;8.468;2023-01-06T06:09:08;11.30;99.60
421;DHT22;63667;49.046;8.468;2023-01-06T06:11:36;11.40;99.60
421;DHT22;63667;49.046;8.468;2023-01-06T06:14:03;11.30;99.60
421;DHT22;63667;49.046;8.468;2023-01-06T06:16:30;11.30;99.60
421;DHT22;63667;49.046;8.468;2023-01-06T06:18:57;11.30;99.60
421;DHT22;63667;49.046;8.468;2023-01-06T06:21:26;11.30;99.60
421;DHT22;63667;49.046;8.468;2023-01-06T06:23:55;11.30;99.60
421;DHT22;63667;49.046;8.468;2023-01-06T06:26:23;11.30;99.60
421;DHT22;63667;49.046;8.468;2023-01-06T06:28:50;11.30;99.60
421;DHT22;63667;49.046;8.468;2023-01-06T06:31:18;11.30;99.60
421;DHT22;63667;49.046;8.468;2023-01-06T06:33:51;11.30;99.60
421;DHT22;63667;49.046;8.468;2023-01-06T06:36:18;11.30;99.60
421;DHT22;63667;49.046;8.468;2023-01-06T06:38:47;11.20;99.60
421;DHT22;63667;49.046;8.468;2023-01-06T06:41:14;11.20;99.60
421;DHT22;63667;49.046;8.468;2023-01-06T06:43:41;11.20;99.60
421;DHT22;63667;49.046;8.468;2023-01-06T06:46:08;11.20;99.60
421;DHT22;63667;49.046;8.468;2023-01-06T06:48:35;11.20;99.60
421;DHT22;63667;49.046;8.468;2023-01-06T06:51:10;11.20;99.60
421;DHT22;63667;49.046;8.468;2023-01-06T06:53:37;11.20;99.60
421;DHT22;63667;49.046;8.468;2023-01-06T06:56:07;11.10;99.60
421;DHT22;63667;49.046;8.468;2023-01-06T06:58:35;11.10;99.60
421;DHT22;63667;49.046;8.468;2023-01-06T07:01:06;11.10;99.60
421;DHT22;63667;49.046;8.468;2023-01-06T07:03:33;11.10;99.60
421;DHT22;63667;49.046;8.468;2023-01-06T07:06:02;11.10;99.60
421;DHT22;63667;49.046;8.468;2023-01-06T07:08:29;11.20;99.60
421;DHT22;63667;49.046;8.468;2023-01-06T07:10:58;11.70;99.60
421;DHT22;63667;49.046;8.468;2023-01-06T07:13:25;11.40;99.60
421;DHT22;63667;49.046;8.468;2023-01-06T07:15:53;11.40;99.60
421;DHT22;63667;49.046;8.468;2023-01-06T07:18:22;11.30;99.60
421;DHT22;63667;49.046;8.468;2023-01-06T07:20:50;11.40;99.60
421;DHT22;63667;49.046;8.468;2023-01-06T07:23:20;11.20;99.60
421;DHT22;63667;49.046;8.468;2023-01-06T07:25:54;11.20;99.60
421;DHT22;63667;49.046;8.468;2023-01-06T07:28:23;11.30;99.60
421;DHT22;63667;49.046;8.468;2023-01-06T07:30:50;11.30;99.60
421;DHT22;63667;49.046;8.468;2023-01-06T07:33:16;11.20;99.60
421;DHT22;63667;49.046;8.468;2023-01-06T07:35:42;11.10;99.60
421;DHT22;63667;49.046;8.468;2023-01-06T07:38:09;11.10;99.60
421;DHT22;63667;49.046;8.468;2023-01-06T07:40:37;11.00;99.60
421;DHT22;63667;49.046;8.468;2023-01-06T07:43:09;11.20;99.60
421;DHT22;63667;49.046;8.468;2023-01-06T07:45:36;11.10;99.60
421;DHT22;63667;49.046;8.468;2023-01-06T07:48:04;11.10;99.60
421;DHT22;63667;49.046;8.468;2023-01-06T07:50:32;11.00;99.60
421;DHT22;63667;49.046;8.468;2023-01-06T07:52:59;11.00;99.60
421;DHT22;63667;49.046;8.468;2023-01-06T07:55:26;11.00;99.60
421;DHT22;63667;49.046;8.468;2023-01-06T07:57:53;11.00;99.60
421;DHT22;63667;49.046;8.468;2023-01-06T08:00:21;11.10;99.60
421;DHT22;63667;49.046;8.468;2023-01-06T08:02:49;11.20;99.60
421;DHT22;63667;49.046;8.468;2023-01-06T08:05:16;11.20;99.60
421;DHT22;63667;49.046;8.468;2023-01-06T08:07:43;11.30;99.60
421;DHT22;63667;49.046;8.468;2023-01-06T08:10:09;11.30;99.60
421;DHT22;63667;49.046;8.468;2023-01-06T08:12:37;11.20;99.60
421;DHT22;63667;49.046;8.468;2023-01-06T08:15:04;11.20;99.60
421;DHT22;63667;49.046;8.468;2023-01-06T08:17:32;11.20;99.60
421;DHT22;63667;49.046;8.468;2023-01-06T08:20:01;11.30;99.60
421;DHT22;63667;49.046;8.468;2023-01-06T08:22:29;11.30;99.60
421;DHT22;63667;49.046;8.468;2023-01-06T08:24:56;11.40;99.60
421;DHT22;63667;49.046;8.468;2023-01-06T08:27:23;11.40;99.60
421;DHT22;63667;49.046;8.468;2023-01-06T08:29:53;11.50;99.60
421;DHT22;63667;49.046;8.468;2023-01-06T08:32:21;11.50;99.60
421;DHT22;63667;49.046;8.468;2023-01-06T08:34:50;11.50;99.60
421;DHT22;63667;49.046;8.468;2023-01-06T08:37:17;11.60;99.60
421;DHT22;63667;49.046;8.468;2023-01-06T08:39:44;11.60;99.60
421;DHT22;63667;49.046;8.468;2023-01-06T08:42:12;11.70;99.60
421;DHT22;63667;49.046;8.468;2023-01-06T08:44:40;11.70;99.60
421;DHT22;63667;49.046;8.468;2023-01-06T08:47:07;11.70;99.60
421;DHT22;63667;49.046;8.468;2023-01-06T08:49:34;11.70;99.60
421;DHT22;63667;49.046;8.468;2023-01-06T08:52:01;11.70;99.60
421;DHT22;63667;49.046;8.468;2023-01-06T08:54:29;11.80;99.60
421;DHT22;63667;49.046;8.468;2023-01-06T08:56:56;11.80;99.60
421;DHT22;63667;49.046;8.468;2023-01-06T08:59:23;11.80;99.60
421;DHT22;63667;49.046;8.468;2023-01-06T09:01:51;11.90;99.60
421;DHT22;63667;49.046;8.468;2023-01-06T09:04:18;11.90;99.60
421;DHT22;63667;49.046;8.468;2023-01-06T09:06:46;11.90;99.60
421;DHT22;63667;49.046;8.468;2023-01-06T09:09:13;11.90;99.60
421;DHT22;63667;49.046;8.468;2023-01-06T09:12:00;11.90;99.60
421;DHT22;63667;49.046;8.468;2023-01-06T09:14:29;12.00;99.60
421;DHT22;63667;49.046;8.468;2023-01-06T09:16:57;12.00;99.60
421;DHT22;63667;49.046;8.468;2023-01-06T09:19:25;12.00;99.60
421;DHT22;63667;49.046;8.468;2023-01-06T09:21:53;12.00;99.60
421;DHT22;63667;49.046;8.468;2023-01-06T09:24:21;12.10;99.60
421;DHT22;63667;49.046;8.468;2023-01-06T09:26:49;12.10;99.60
421;DHT22;63667;49.046;8.468;2023-01-06T09:29:17;12.10;99.60
421;DHT22;63667;49.046;8.468;2023-01-06T09:31:46;12.10;99.60
421;DHT22;63667;49.046;8.468;2023-01-06T09:34:13;12.20;99.60
421;DHT22;63667;49.046;8.468;2023-01-06T09:36:40;12.10;99.60
421;DHT22;63667;49.046;8.468;2023-01-06T09:39:07;12.20;99.60
421;DHT22;63667;49.046;8.468;2023-01-06T09:41:40;12.20;99.60
421;DHT22;63667;49.046;8.468;2023-01-06T09:44:16;12.20;99.60
421;DHT22;63667;49.046;8.468;2023-01-06T09:46:46;12.30;99.60
421;DHT22;63667;49.046;8.468;2023-01-06T09:52:03;12.40;99.60
421;DHT22;63667;49.046;8.468;2023-01-06T09:54:38;12.30;99.60
421;DHT22;63667;49.046;8.468;2023-01-06T09:57:54;12.40;99.60
421;DHT22;63667;49.046;8.468;2023-01-06T10:03:16;12.40;99.60
421;DHT22;63667;49.046;8.468;2023-01-06T10:11:13;12.40;99.60
421;DHT22;63667;49.046;8.468;2023-01-06T10:19:31;12.70;99.60
421;DHT22;63667;49.046;8.468;2023-01-06T10:30:03;12.60;99.60
421;DHT22;63667;49.046;8.468;2023-01-06T10:32:32;12.40;99.60
421;DHT22;63667;49.046;8.468;2023-01-06T10:35:01;12.40;99.60
421;DHT22;63667;49.046;8.468;2023-01-06T10:37:36;12.30;99.60
421;DHT22;63667;49.046;8.468;2023-01-06T10:40:22;12.20;99.60
421;DHT22;63667;49.046;8.468;2023-01-06T10:42:53;12.30;99.60
421;DHT22;63667;49.046;8.468;2023-01-06T10:45:37;12.30;99.60
421;DHT22;63667;49.046;8.468;2023-01-06T10:48:13;12.30;99.60
421;DHT22;63667;49.046;8.468;2023-01-06T10:50:41;12.40;99.60
421;DHT22;63667;49.046;8.468;2023-01-06T10:53:10;12.50;99.60
421;DHT22;63667;49.046;8.468;2023-01-06T10:55:56;12.60;99.60
421;DHT22;63667;49.046;8.468;2023-01-06T10:58:57;12.60;99.60
421;DHT22;63667;49.046;8.468;2023-01-06T11:01:27;12.60;99.60
421;DHT22;63667;49.046;8.468;2023-01-06T11:04:12;12.80;99.60
421;DHT22;63667;49.046;8.468;2023-01-06T11:07:03;13.00;99.60
421;DHT22;63667;49.046;8.468;2023-01-06T11:09:41;13.00;99.60
421;DHT22;63667;49.046;8.468;2023-01-06T11:12:18;13.20;99.60
421;DHT22;63667;49.046;8.468;2023-01-06T11:14:58;13.20;99.60
421;DHT22;63667;49.046;8.468;2023-01-06T11:17:29;13.40;99.60
421;DHT22;63667;49.046;8.468;2023-01-06T11:20:28;13.60;99.60
421;DHT22;63667;49.046;8.468;2023-01-06T11:22:53;13.70;99.60
421;DHT22;63667;49.046;8.468;2023-01-06T11:25:22;13.80;99.60
421;DHT22;63667;49.046;8.468;2023-01-06T11:28:19;14.00;99.60
421;DHT22;63667;49.046;8.468;2023-01-06T11:30:51;14.00;99.60
421;DHT22;63667;49.046;8.468;2023-01-06T11:33:24;13.90;99.60
421;DHT22;63667;49.046;8.468;2023-01-06T11:35:51;13.70;99.60
421;DHT22;63667;49.046;8.468;2023-01-06T11:38:20;13.70;99.60
421;DHT22;63667;49.046;8.468;2023-01-06T11:40:48;13.90;99.60
421;DHT22;63667;49.046;8.468;2023-01-06T11:43:19;14.10;99.60
421;DHT22;63667;49.046;8.468;2023-01-06T11:45:55;14.20;99.60
421;DHT22;63667;49.046;8.468;2023-01-06T11:51:01;13.60;99.60
421;DHT22;63667;49.046;8.468;2023-01-06T11:53:28;13.80;99.60
421;DHT22;63667;49.046;8.468;2023-01-06T12:04:05;14.20;99.60
421;DHT22;63667;49.046;8.468;2023-01-06T12:06:38;14.10;99.60
421;DHT22;63667;49.046;8.468;2023-01-06T12:11:47;14.00;99.60
421;DHT22;63667;49.046;8.468;2023-01-06T12:14:24;14.10;99.60
421;DHT22;63667;49.046;8.468;2023-01-06T12:22:45;13.90;99.60
421;DHT22;63667;49.046;8.468;2023-01-06T12:25:26;13.70;99.60
421;DHT22;63667;49.046;8.468;2023-01-06T12:28:04;13.60;99.60
421;DHT22;63667;49.046;8.468;2023-01-06T12:33:24;13.60;99.60
421;DHT22;63667;49.046;8.468;2023-01-06T12:35:55;13.30;99.60
421;DHT22;63667;49.046;8.468;2023-01-06T12:38:57;13.20;99.60
421;DHT22;63667;49.046;8.468;2023-01-06T12:41:46;13.20;99.60
421;DHT22;63667;49.046;8.468;2023-01-06T12:47:03;13.30;99.60
421;DHT22;63667;49.046;8.468;2023-01-06T12:49:45;13.30;99.60
421;DHT22;63667;49.046;8.468;2023-01-06T12:52:46;13.40;99.60
421;DHT22;63667;49.046;8.468;2023-01-06T12:55:54;13.50;99.60
421;DHT22;63667;49.046;8.468;2023-01-06T12:59:13;13.30;99.60
421;DHT22;63667;49.046;8.468;2023-01-06T13:01:50;13.20;99.60
421;DHT22;63667;49.046;8.468;2023-01-06T13:04:43;13.10;99.60
421;DHT22;63667;49.046;8.468;2023-01-06T13:07:28;13.10;99.60
421;DHT22;63667;49.046;8.468;2023-01-06T13:15:26;12.80;99.60
421;DHT22;63667;49.046;8.468;2023-01-06T13:21:09;12.80;99.60
421;DHT22;63667;49.046;8.468;2023-01-06T13:32:02;12.60;99.60
421;DHT22;63667;49.046;8.468;2023-01-06T13:37:41;12.60;99.60
421;DHT22;63667;49.046;8.468;2023-01-06T13:40:22;12.60;99.60
421;DHT22;63667;49.046;8.468;2023-01-06T13:43:21;12.60;99.60
421;DHT22;63667;49.046;8.468;2023-01-06T13:45:59;12.40;99.60
421;DHT22;63667;49.046;8.468;2023-01-06T13:48:32;12.50;99.60
421;DHT22;63667;49.046;8.468;2023-01-06T13:51:09;12.50;99.60
421;DHT22;63667;49.046;8.468;2023-01-06T13:53:40;12.50;99.60
421;DHT22;63667;49.046;8.468;2023-01-06T13:58:43;12.40;99.60
421;DHT22;63667;49.046;8.468;2023-01-06T14:01:32;12.40;99.60
421;DHT22;63667;49.046;8.468;2023-01-06T14:06:59;12.40;99.60
421;DHT22;63667;49.046;8.468;2023-01-06T14:09:27;12.40;99.60
421;DHT22;63667;49.046;8.468;2023-01-06T14:12:10;12.40;99.60
421;DHT22;63667;49.046;8.468;2023-01-06T14:15:05;12.40;99.60
421;DHT22;63667;49.046;8.468;2023-01-06T14:17:40;12.40;99.60
421;DHT22;63667;49.046;8.468;2023-01-06T14:20:32;12.40;99.60
421;DHT22;63667;49.046;8.468;2023-01-06T14:23:02;12.40;99.60
421;DHT22;63667;49.046;8.468;2023-01-06T14:25:40;12.40;99.60
421;DHT22;63667;49.046;8.468;2023-01-06T14:30:48;12.40;99.60
421;DHT22;63667;49.046;8.468;2023-01-06T14:33:48;12.30;99.60
421;DHT22;63667;49.046;8.468;2023-01-06T14:36:15;12.30;99.60
421;DHT22;63667;49.046;8.468;2023-01-06T14:38:45;12.30;99.60
421;DHT22;63667;49.046;8.468;2023-01-06T14:41:38;12.30;99.60
421;DHT22;63667;49.046;8.468;2023-01-06T14:44:30;12.30;99.60
421;DHT22;63667;49.046;8.468;2023-01-06T14:47:03;12.30;99.60
421;DHT22;63667;49.046;8.468;2023-01-06T14:50:00;12.20;99.60
421;DHT22;63667;49.046;8.468;2023-01-06T14:52:38;12.20;99.60
421;DHT22;63667;49.046;8.468;2023-01-06T14:55:09;12.20;99.60
421;DHT22;63667;49.046;8.468;2023-01-06T14:57:38;12.20;99.60
421;DHT22;63667;49.046;8.468;2023-01-06T15:00:27;12.10;99.60
421;DHT22;63667;49.046;8.468;2023-01-06T15:03:01;12.10;99.60
421;DHT22;63667;49.046;8.468;2023-01-06T15:05:44;12.00;99.60
421;DHT22;63667;49.046;8.468;2023-01-06T15:10:39;12.10;99.60
421;DHT22;63667;49.046;8.468;2023-01-06T15:16:10;12.00;99.60
421;DHT22;63667;49.046;8.468;2023-01-06T15:18:44;12.00;99.60
421;DHT22;63667;49.046;8.468;2023-01-06T15:21:12;12.00;99.60
421;DHT22;63667;49.046;8.468;2023-01-06T15:23:43;12.00;99.60
421;DHT22;63667;49.046;8.468;2023-01-06T15:26:23;12.00;99.60
421;DHT22;63667;49.046;8.468;2023-01-06T15:29:13;11.90;99.60
421;DHT22;63667;49.046;8.468;2023-01-06T15:31:42;11.90;99.60
421;DHT22;63667;49.046;8.468;2023-01-06T15:34:24;11.90;99.60
421;DHT22;63667;49.046;8.468;2023-01-06T15:36:53;11.90;99.60
421;DHT22;63667;49.046;8.468;2023-01-06T15:39:30;11.90;99.60
421;DHT22;63667;49.046;8.468;2023-01-06T15:41:58;11.90;99.60
421;DHT22;63667;49.046;8.468;2023-01-06T15:44:28;11.90;99.60
421;DHT22;63667;49.046;8.468;2023-01-06T15:49:50;11.80;99.60
421;DHT22;63667;49.046;8.468;2023-01-06T15:52:29;11.80;99.60
421;DHT22;63667;49.046;8.468;2023-01-06T16:00:50;11.60;99.60
421;DHT22;63667;49.046;8.468;2023-01-06T16:03:23;11.60;99.60
421;DHT22;63667;49.046;8.468;2023-01-06T16:05:50;11.50;99.60
421;DHT22;63667;49.046;8.468;2023-01-06T16:08:23;11.60;99.60
421;DHT22;63667;49.046;8.468;2023-01-06T16:14:01;11.60;99.60
421;DHT22;63667;49.046;8.468;2023-01-06T16:16:35;11.60;99.60
421;DHT22;63667;49.046;8.468;2023-01-06T16:19:12;11.60;99.60
421;DHT22;63667;49.046;8.468;2023-01-06T16:21:42;11.50;99.60
421;DHT22;63667;49.046;8.468;2023-01-06T16:24:21;11.50;99.60
421;DHT22;63667;49.046;8.468;2023-01-06T16:26:54;11.40;99.60
421;DHT22;63667;49.046;8.468;2023-01-06T16:29:32;11.30;99.60
421;DHT22;63667;49.046;8.468;2023-01-06T16:34:51;11.20;99.60
421;DHT22;63667;49.046;8.468;2023-01-06T16:37:20;11.20;99.60
421;DHT22;63667;49.046;8.468;2023-01-06T16:39:47;11.10;99.60
421;DHT22;63667;49.046;8.468;2023-01-06T16:45:07;11.10;99.60
421;DHT22;63667;49.046;8.468;2023-01-06T16:47:40;11.10;99.60
421;DHT22;63667;49.046;8.468;2023-01-06T16:50:17;11.10;99.60
421;DHT22;63667;49.046;8.468;2023-01-06T16:52:46;11.10;99.60
421;DHT22;63667;49.046;8.468;2023-01-06T16:55:15;11.00;99.60
421;DHT22;63667;49.046;8.468;2023-01-06T16:57:46;11.00;99.60
421;DHT22;63667;49.046;8.468;2023-01-06T17:00:19;10.90;99.60
421;DHT22;63667;49.046;8.468;2023-01-06T17:02:47;10.90;99.60
421;DHT22;63667;49.046;8.468;2023-01-06T17:05:18;10.80;99.60
421;DHT22;63667;49.046;8.468;2023-01-06T17:07:46;10.90;99.60
421;DHT22;63667;49.046;8.468;2023-01-06T17:10:16;10.90;99.60
421;DHT22;63667;49.046;8.468;2023-01-06T17:12:58;11.00;99.60
421;DHT22;63667;49.046;8.468;2023-01-06T17:15:44;11.10;99.60
421;DHT22;63667;49.046;8.468;2023-01-06T17:18:20;11.00;99.60
421;DHT22;63667;49.046;8.468;2023-01-06T17:20:48;11.00;99.60
421;DHT22;63667;49.046;8.468;2023-01-06T17:23:16;11.00;99.60
421;DHT22;63667;49.046;8.468;2023-01-06T17:25:44;11.00;99.60
421;DHT22;63667;49.046;8.468;2023-01-06T17:28:20;11.00;99.60
421;DHT22;63667;49.046;8.468;2023-01-06T17:31:09;11.00;99.60
421;DHT22;63667;49.046;8.468;2023-01-06T17:33:38;10.90;99.60
421;DHT22;63667;49.046;8.468;2023-01-06T17:36:24;10.80;99.60
421;DHT22;63667;49.046;8.468;2023-01-06T17:38:51;10.80;99.60
421;DHT22;63667;49.046;8.468;2023-01-06T17:41:18;10.80;99.60
421;DHT22;63667;49.046;8.468;2023-01-06T17:43:47;10.90;99.60
421;DHT22;63667;49.046;8.468;2023-01-06T17:46:30;10.90;99.60
421;DHT22;63667;49.046;8.468;2023-01-06T17:51:45;11.00;99.60
421;DHT22;63667;49.046;8.468;2023-01-06T17:54:18;11.10;99.60
421;DHT22;63667;49.046;8.468;2023-01-06T17:57:13;11.10;99.60
421;DHT22;63667;49.046;8.468;2023-01-06T17:59:48;11.00;99.60
421;DHT22;63667;49.046;8.468;2023-01-06T18:02:43;11.00;99.60
421;DHT22;63667;49.046;8.468;2023-01-06T18:08:14;11.10;99.60
421;DHT22;63667;49.046;8.468;2023-01-06T18:10:52;11.00;99.60
421;DHT22;63667;49.046;8.468;2023-01-06T18:13:25;10.90;99.60
421;DHT22;63667;49.046;8.468;2023-01-06T18:16:00;10.80;99.60
421;DHT22;63667;49.046;8.468;2023-01-06T18:18:35;10.90;99.60
421;DHT22;63667;49.046;8.468;2023-01-06T18:23:50;10.90;99.60
421;DHT22;63667;49.046;8.468;2023-01-06T18:31:22;10.90;99.60
421;DHT22;63667;49.046;8.468;2023-01-06T18:33:50;10.90;99.60
421;DHT22;63667;49.046;8.468;2023-01-06T18:36:18;10.90;99.60
421;DHT22;63667;49.046;8.468;2023-01-06T18:38:46;10.90;99.60
421;DHT22;63667;49.046;8.468;2023-01-06T18:41:13;10.80;99.60
421;DHT22;63667;49.046;8.468;2023-01-06T18:43:42;10.80;99.60
421;DHT22;63667;49.046;8.468;2023-01-06T18:46:14;10.80;99.60
421;DHT22;63667;49.046;8.468;2023-01-06T18:48:41;10.70;99.60
421;DHT22;63667;49.046;8.468;2023-01-06T18:51:20;10.80;99.60
421;DHT22;63667;49.046;8.468;2023-01-06T18:53:51;10.80;99.60
421;DHT22;63667;49.046;8.468;2023-01-06T18:56:22;10.80;99.60
421;DHT22;63667;49.046;8.468;2023-01-06T18:58:55;10.80;99.60
421;DHT22;63667;49.046;8.468;2023-01-06T19:01:43;10.90;99.60
421;DHT22;63667;49.046;8.468;2023-01-06T19:04:21;10.80;99.60
421;DHT22;63667;49.046;8.468;2023-01-06T19:09:39;10.70;99.60
421;DHT22;63667;49.046;8.468;2023-01-06T19:14:40;10.60;99.60
421;DHT22;63667;49.046;8.468;2023-01-06T19:17:30;10.50;99.60